sensor_id;sensor_type;location;lat;lon;timestamp;pressure;altitude;pressure_sealevel;temperature;humidity
63111;BME280;49201;53.426;10.300;2022-10-16T00:01:45;101009.66;;;14.16;97.18
63111;BME280;49201;53.426;10.300;2022-10-16T00:04:12;101014.75;;;14.12;97.07
63111;BME280;49201;53.426;10.300;2022-10-16T00:06:38;101012.16;;;14.09;97.53
63111;BME280;49201;53.426;10.300;2022-10-16T00:09:04;101013.84;;;14.02;97.45
63111;BME280;49201;53.426;10.300;2022-10-16T00:11:32;101018.94;;;13.99;97.66
63111;BME280;49201;53.426;10.300;2022-10-16T00:14:01;101014.63;;;13.97;97.40
63111;BME280;49201;53.426;10.300;2022-10-16T00:16:28;101018.03;;;13.93;97.70
63111;BME280;49201;53.426;10.300;2022-10-16T00:18:53;101016.31;;;13.92;97.99
63111;BME280;49201;53.426;10.300;2022-10-16T00:21:21;101028.31;;;13.90;97.95
63111;BME280;49201;53.426;10.300;2022-10-16T00:23:51;101027.41;;;13.86;98.16
63111;BME280;49201;53.426;10.300;2022-10-16T00:26:17;101023.97;;;13.86;98.13
63111;BME280;49201;53.426;10.300;2022-10-16T00:28:46;101028.25;;;13.82;98.31
63111;BME280;49201;53.426;10.300;2022-10-16T00:31:12;101028.22;;;13.79;98.37
63111;BME280;49201;53.426;10.300;2022-10-16T00:33:39;101034.22;;;13.78;98.23
63111;BME280;49201;53.426;10.300;2022-10-16T00:36:06;101035.88;;;13.75;98.49
63111;BME280;49201;53.426;10.300;2022-10-16T00:38:32;101036.72;;;13.74;98.39
63111;BME280;49201;53.426;10.300;2022-10-16T00:40:58;101040.09;;;13.68;98.05
63111;BME280;49201;53.426;10.300;2022-10-16T00:46:08;101046.06;;;13.63;98.33
63111;BME280;49201;53.426;10.300;2022-10-16T00:48:35;101038.31;;;13.60;98.71
63111;BME280;49201;53.426;10.300;2022-10-16T00:51:01;101039.16;;;13.59;98.72
63111;BME280;49201;53.426;10.300;2022-10-16T00:53:27;101032.28;;;13.58;98.36
63111;BME280;49201;53.426;10.300;2022-10-16T00:55:52;101047.69;;;13.55;99.52
63111;BME280;49201;53.426;10.300;2022-10-16T00:58:18;101035.63;;;13.51;99.54
63111;BME280;49201;53.426;10.300;2022-10-16T01:00:44;101048.47;;;13.49;98.91
63111;BME280;49201;53.426;10.300;2022-10-16T01:03:27;101045.06;;;13.49;98.89
63111;BME280;49201;53.426;10.300;2022-10-16T01:08:51;101050.13;;;13.43;99.66
63111;BME280;49201;53.426;10.300;2022-10-16T01:11:27;101044.09;;;13.39;99.04
63111;BME280;49201;53.426;10.300;2022-10-16T01:13:58;101048.34;;;13.37;99.55
63111;BME280;49201;53.426;10.300;2022-10-16T01:16:34;101058.63;;;13.36;99.90
63111;BME280;49201;53.426;10.300;2022-10-16T01:21:52;101060.31;;;13.32;100.00
63111;BME280;49201;53.426;10.300;2022-10-16T01:24:31;101057.66;;;13.28;100.00
63111;BME280;49201;53.426;10.300;2022-10-16T01:27:22;101064.47;;;13.23;99.85
63111;BME280;49201;53.426;10.300;2022-10-16T01:29:57;101057.56;;;13.20;100.00
63111;BME280;49201;53.426;10.300;2022-10-16T01:35:42;101067.88;;;13.20;99.46
63111;BME280;49201;53.426;10.300;2022-10-16T01:38:24;101067.00;;;13.18;99.59
63111;BME280;49201;53.426;10.300;2022-10-16T01:40:57;101061.81;;;13.15;99.89
63111;BME280;49201;53.426;10.300;2022-10-16T01:43:38;101062.63;;;13.13;99.36
63111;BME280;49201;53.426;10.300;2022-10-16T01:46:05;101066.91;;;13.11;99.02
63111;BME280;49201;53.426;10.300;2022-10-16T01:48:32;101063.38;;;13.04;99.41
63111;BME280;49201;53.426;10.300;2022-10-16T01:51:10;101077.97;;;13.05;98.95
63111;BME280;49201;53.426;10.300;2022-10-16T01:53:37;101073.66;;;13.03;99.00
63111;BME280;49201;53.426;10.300;2022-10-16T01:56:08;101073.59;;;13.00;98.97
63111;BME280;49201;53.426;10.300;2022-10-16T01:58:39;101071.00;;;12.98;98.75
63111;BME280;49201;53.426;10.300;2022-10-16T02:01:07;101078.72;;;12.98;98.71
63111;BME280;49201;53.426;10.300;2022-10-16T02:03:36;101074.34;;;12.95;99.31
63111;BME280;49201;53.426;10.300;2022-10-16T02:06:03;101075.22;;;12.94;98.97
63111;BME280;49201;53.426;10.300;2022-10-16T02:08:29;101071.78;;;12.95;98.82
63111;BME280;49201;53.426;10.300;2022-10-16T02:11:00;101074.41;;;12.97;99.04
63111;BME280;49201;53.426;10.300;2022-10-16T02:13:42;101079.47;;;12.94;98.65
63111;BME280;49201;53.426;10.300;2022-10-16T02:16:11;101075.19;;;12.93;98.33
63111;BME280;49201;53.426;10.300;2022-10-16T02:18:38;101076.03;;;12.92;98.35
63111;BME280;49201;53.426;10.300;2022-10-16T02:29:08;101081.94;;;12.86;98.57
63111;BME280;49201;53.426;10.300;2022-10-16T02:31:41;101075.06;;;12.84;97.88
63111;BME280;49201;53.426;10.300;2022-10-16T02:34:08;101079.31;;;12.82;97.54
63111;BME280;49201;53.426;10.300;2022-10-16T02:36:38;101077.59;;;12.81;97.76
63111;BME280;49201;53.426;10.300;2022-10-16T02:39:05;101075.03;;;12.81;97.63
63111;BME280;49201;53.426;10.300;2022-10-16T02:41:31;101086.97;;;12.79;97.12
63111;BME280;49201;53.426;10.300;2022-10-16T02:43:56;101081.81;;;12.76;97.36
63111;BME280;49201;53.426;10.300;2022-10-16T02:46:22;101068.06;;;12.74;96.93
63111;BME280;49201;53.426;10.300;2022-10-16T02:48:47;101080.91;;;12.74;97.17
63111;BME280;49201;53.426;10.300;2022-10-16T02:51:13;101080.03;;;12.73;96.99
63111;BME280;49201;53.426;10.300;2022-10-16T02:53:38;101083.50;;;12.75;96.42
63111;BME280;49201;53.426;10.300;2022-10-16T02:56:04;101071.47;;;12.73;96.26
63111;BME280;49201;53.426;10.300;2022-10-16T02:58:29;101070.59;;;12.71;96.37
63111;BME280;49201;53.426;10.300;2022-10-16T03:00:55;101074.84;;;12.69;95.96
63111;BME280;49201;53.426;10.300;2022-10-16T03:03:20;101069.66;;;12.64;96.32
63111;BME280;49201;53.426;10.300;2022-10-16T03:05:46;101081.56;;;12.61;95.75
63111;BME280;49201;53.426;10.300;2022-10-16T03:08:12;101078.09;;;12.57;96.25
63111;BME280;49201;53.426;10.300;2022-10-16T03:10:38;101068.69;;;12.56;95.93
63111;BME280;49201;53.426;10.300;2022-10-16T03:13:03;101070.31;;;12.51;95.99
63111;BME280;49201;53.426;10.300;2022-10-16T03:15:29;101064.31;;;12.51;96.24
63111;BME280;49201;53.426;10.300;2022-10-16T03:17:57;101072.81;;;12.48;95.88
63111;BME280;49201;53.426;10.300;2022-10-16T03:20:24;101073.66;;;12.47;96.01
63111;BME280;49201;53.426;10.300;2022-10-16T03:22:49;101063.41;;;12.47;96.27
63111;BME280;49201;53.426;10.300;2022-10-16T03:25:15;101070.19;;;12.45;96.23
63111;BME280;49201;53.426;10.300;2022-10-16T03:27:40;101076.97;;;12.39;96.15
63111;BME280;49201;53.426;10.300;2022-10-16T03:30:06;101078.66;;;12.38;96.49
63111;BME280;49201;53.426;10.300;2022-10-16T03:32:32;101081.16;;;12.35;96.32
63111;BME280;49201;53.426;10.300;2022-10-16T03:34:58;101082.06;;;12.36;96.57
63111;BME280;49201;53.426;10.300;2022-10-16T03:37:23;101076.81;;;12.31;96.42
63111;BME280;49201;53.426;10.300;2022-10-16T03:39:49;101083.72;;;12.32;96.68
63111;BME280;49201;53.426;10.300;2022-10-16T03:42:14;101077.63;;;12.29;96.15
63111;BME280;49201;53.426;10.300;2022-10-16T03:44:39;101074.19;;;12.27;96.59
63111;BME280;49201;53.426;10.300;2022-10-16T03:47:05;101085.31;;;12.26;96.19
63111;BME280;49201;53.426;10.300;2022-10-16T03:49:30;101088.69;;;12.23;96.55
63111;BME280;49201;53.426;10.300;2022-10-16T03:51:56;101094.63;;;12.19;96.52
63111;BME280;49201;53.426;10.300;2022-10-16T03:54:21;101081.75;;;12.18;96.25
63111;BME280;49201;53.426;10.300;2022-10-16T03:56:47;101083.34;;;12.11;96.60
63111;BME280;49201;53.426;10.300;2022-10-16T03:59:13;101090.19;;;12.12;96.54
63111;BME280;49201;53.426;10.300;2022-10-16T04:01:39;101094.47;;;12.10;96.52
63111;BME280;49201;53.426;10.300;2022-10-16T04:04:04;101086.72;;;12.09;96.92
63111;BME280;49201;53.426;10.300;2022-10-16T04:06:29;101096.13;;;12.07;96.61
63111;BME280;49201;53.426;10.300;2022-10-16T04:08:55;101089.22;;;12.06;96.83
63111;BME280;49201;53.426;10.300;2022-10-16T04:11:21;101090.91;;;12.04;96.85
63111;BME280;49201;53.426;10.300;2022-10-16T04:13:47;101107.97;;;12.02;97.08
63111;BME280;49201;53.426;10.300;2022-10-16T04:16:12;101106.22;;;11.98;97.52
63111;BME280;49201;53.426;10.300;2022-10-16T04:18:37;101117.31;;;11.97;97.61
63111;BME280;49201;53.426;10.300;2022-10-16T04:21:04;101118.94;;;11.93;97.39
63111;BME280;49201;53.426;10.300;2022-10-16T04:23:29;101112.09;;;11.92;97.83
63111;BME280;49201;53.426;10.300;2022-10-16T04:25:55;101123.25;;;11.94;97.92
63111;BME280;49201;53.426;10.300;2022-10-16T04:28:20;101125.84;;;11.96;97.74
63111;BME280;49201;53.426;10.300;2022-10-16T04:30:46;101121.47;;;11.92;97.42
63111;BME280;49201;53.426;10.300;2022-10-16T04:33:11;101122.25;;;11.88;97.73
63111;BME280;49201;53.426;10.300;2022-10-16T04:35:38;101127.41;;;11.88;97.49
63111;BME280;49201;53.426;10.300;2022-10-16T04:38:03;101127.41;;;11.88;97.38
63111;BME280;49201;53.426;10.300;2022-10-16T04:40:28;101142.78;;;11.86;97.45
63111;BME280;49201;53.426;10.300;2022-10-16T04:42:54;101138.47;;;11.85;97.26
63111;BME280;49201;53.426;10.300;2022-10-16T04:45:19;101148.72;;;11.85;97.48
63111;BME280;49201;53.426;10.300;2022-10-16T04:47:45;101139.28;;;11.81;97.15
63111;BME280;49201;53.426;10.300;2022-10-16T04:50:10;101151.19;;;11.79;97.51
63111;BME280;49201;53.426;10.300;2022-10-16T04:52:36;101146.03;;;11.78;97.63
63111;BME280;49201;53.426;10.300;2022-10-16T04:55:01;101145.13;;;11.76;98.45
63111;BME280;49201;53.426;10.300;2022-10-16T04:57:29;101144.28;;;11.77;98.31
63111;BME280;49201;53.426;10.300;2022-10-16T04:59:55;101144.38;;;11.80;98.40
63111;BME280;49201;53.426;10.300;2022-10-16T05:02:21;101146.09;;;11.81;98.76
63111;BME280;49201;53.426;10.300;2022-10-16T05:04:46;101146.09;;;11.81;98.42
63111;BME280;49201;53.426;10.300;2022-10-16T05:07:12;101144.41;;;11.81;98.49
63111;BME280;49201;53.426;10.300;2022-10-16T05:09:37;101150.34;;;11.80;98.46
63111;BME280;49201;53.426;10.300;2022-10-16T05:12:03;101155.44;;;11.77;98.59
63111;BME280;49201;53.426;10.300;2022-10-16T05:14:29;101159.66;;;11.75;98.74
63111;BME280;49201;53.426;10.300;2022-10-16T05:16:54;101161.34;;;11.73;98.59
63111;BME280;49201;53.426;10.300;2022-10-16T05:19:20;101167.31;;;11.74;98.93
63111;BME280;49201;53.426;10.300;2022-10-16T05:21:45;101166.44;;;11.72;98.89
63111;BME280;49201;53.426;10.300;2022-10-16T05:24:11;101160.44;;;11.70;98.90
63111;BME280;49201;53.426;10.300;2022-10-16T05:26:36;101174.97;;;11.71;99.50
63111;BME280;49201;53.426;10.300;2022-10-16T05:29:03;101169.78;;;11.68;99.35
63111;BME280;49201;53.426;10.300;2022-10-16T05:31:28;101182.63;;;11.69;99.50
63111;BME280;49201;53.426;10.300;2022-10-16T05:34:00;101168.00;;;11.65;99.43
63111;BME280;49201;53.426;10.300;2022-10-16T05:36:26;101177.38;;;11.63;99.59
63111;BME280;49201;53.426;10.300;2022-10-16T05:38:51;101177.34;;;11.62;99.54
63111;BME280;49201;53.426;10.300;2022-10-16T05:41:17;101182.38;;;11.59;99.94
63111;BME280;49201;53.426;10.300;2022-10-16T05:43:47;101188.41;;;11.59;99.85
63111;BME280;49201;53.426;10.300;2022-10-16T05:46:13;101176.47;;;11.61;100.00
63111;BME280;49201;53.426;10.300;2022-10-16T05:48:39;101175.63;;;11.61;100.00
63111;BME280;49201;53.426;10.300;2022-10-16T05:51:10;101179.06;;;11.63;99.95
63111;BME280;49201;53.426;10.300;2022-10-16T05:53:37;101171.41;;;11.64;100.00
63111;BME280;49201;53.426;10.300;2022-10-16T05:56:03;101180.81;;;11.64;100.00
63111;BME280;49201;53.426;10.300;2022-10-16T05:58:31;101176.47;;;11.61;100.00
63111;BME280;49201;53.426;10.300;2022-10-16T06:01:00;101183.31;;;11.62;100.00
63111;BME280;49201;53.426;10.300;2022-10-16T06:03:26;101185.94;;;11.64;100.00
63111;BME280;49201;53.426;10.300;2022-10-16T06:05:52;101185.09;;;11.63;100.00
63111;BME280;49201;53.426;10.300;2022-10-16T06:08:19;101194.50;;;11.64;100.00
63111;BME280;49201;53.426;10.300;2022-10-16T06:10:45;101189.41;;;11.66;100.00
63111;BME280;49201;53.426;10.300;2022-10-16T06:13:12;101197.09;;;11.66;100.00
63111;BME280;49201;53.426;10.300;2022-10-16T06:15:39;101196.22;;;11.65;100.00
63111;BME280;49201;53.426;10.300;2022-10-16T06:18:07;101194.53;;;11.66;100.00
63111;BME280;49201;53.426;10.300;2022-10-16T06:20:32;101191.94;;;11.64;100.00
63111;BME280;49201;53.426;10.300;2022-10-16T06:22:58;101205.66;;;11.66;100.00
63111;BME280;49201;53.426;10.300;2022-10-16T06:25:23;101200.47;;;11.65;100.00
63111;BME280;49201;53.426;10.300;2022-10-16T06:27:49;101204.75;;;11.64;100.00
63111;BME280;49201;53.426;10.300;2022-10-16T06:30:14;101210.75;;;11.65;100.00
63111;BME280;49201;53.426;10.300;2022-10-16T06:32:40;101210.78;;;11.66;100.00
63111;BME280;49201;53.426;10.300;2022-10-16T06:35:05;101211.72;;;11.70;100.00
63111;BME280;49201;53.426;10.300;2022-10-16T06:37:31;101222.88;;;11.72;100.00
63111;BME280;49201;53.426;10.300;2022-10-16T06:39:56;101214.41;;;11.76;100.00
63111;BME280;49201;53.426;10.300;2022-10-16T06:42:22;101214.34;;;11.73;100.00
63111;BME280;49201;53.426;10.300;2022-10-16T06:44:47;101214.38;;;11.74;100.00
63111;BME280;49201;53.426;10.300;2022-10-16T06:47:13;101217.84;;;11.78;100.00
63111;BME280;49201;53.426;10.300;2022-10-16T06:49:39;101228.19;;;11.81;100.00
63111;BME280;49201;53.426;10.300;2022-10-16T06:52:05;101235.97;;;11.85;100.00
63111;BME280;49201;53.426;10.300;2022-10-16T06:54:30;101236.88;;;11.87;100.00
63111;BME280;49201;53.426;10.300;2022-10-16T06:56:56;101248.00;;;11.88;100.00
63111;BME280;49201;53.426;10.300;2022-10-16T06:59:22;101241.31;;;11.96;100.00
63111;BME280;49201;53.426;10.300;2022-10-16T07:01:47;101250.94;;;12.04;100.00
63111;BME280;49201;53.426;10.300;2022-10-16T07:04:13;101247.66;;;12.13;100.00
63111;BME280;49201;53.426;10.300;2022-10-16T07:06:39;101249.56;;;12.23;100.00
63111;BME280;49201;53.426;10.300;2022-10-16T07:09:07;101245.59;;;12.38;100.00
63111;BME280;49201;53.426;10.300;2022-10-16T07:11:34;101247.59;;;12.53;100.00
63111;BME280;49201;53.426;10.300;2022-10-16T07:14:00;101249.50;;;12.66;100.00
63111;BME280;49201;53.426;10.300;2022-10-16T07:16:27;101258.16;;;12.71;99.25
63111;BME280;49201;53.426;10.300;2022-10-16T07:18:58;101247.28;;;12.85;98.53
63111;BME280;49201;53.426;10.300;2022-10-16T07:21:25;101254.44;;;13.00;98.51
63111;BME280;49201;53.426;10.300;2022-10-16T07:23:52;101263.94;;;13.07;98.00
63111;BME280;49201;53.426;10.300;2022-10-16T07:26:18;101272.84;;;13.26;97.25
63111;BME280;49201;53.426;10.300;2022-10-16T07:28:44;101271.09;;;13.26;97.24
63111;BME280;49201;53.426;10.300;2022-10-16T07:31:12;101272.00;;;13.28;97.18
63111;BME280;49201;53.426;10.300;2022-10-16T07:33:40;101278.81;;;13.26;96.62
63111;BME280;49201;53.426;10.300;2022-10-16T07:36:07;101280.59;;;13.30;96.98
63111;BME280;49201;53.426;10.300;2022-10-16T07:38:33;101287.06;;;13.59;96.53
63111;BME280;49201;53.426;10.300;2022-10-16T07:41:04;101290.56;;;13.66;95.57
63111;BME280;49201;53.426;10.300;2022-10-16T07:43:30;101301.00;;;13.73;95.41
63111;BME280;49201;53.426;10.300;2022-10-16T07:45:56;101301.28;;;13.96;94.99
63111;BME280;49201;53.426;10.300;2022-10-16T07:48:22;101298.91;;;14.11;94.32
63111;BME280;49201;53.426;10.300;2022-10-16T07:50:48;101304.25;;;14.26;93.45
63111;BME280;49201;53.426;10.300;2022-10-16T07:53:13;101308.06;;;14.56;91.98
63111;BME280;49201;53.426;10.300;2022-10-16T07:55:39;101317.72;;;14.75;91.12
63111;BME280;49201;53.426;10.300;2022-10-16T07:58:05;101307.63;;;14.98;89.96
63111;BME280;49201;53.426;10.300;2022-10-16T08:00:31;101297.38;;;15.07;90.15
63111;BME280;49201;53.426;10.300;2022-10-16T08:02:57;101301.84;;;15.27;89.48
63111;BME280;49201;53.426;10.300;2022-10-16T08:05:27;101308.88;;;15.42;88.64
63111;BME280;49201;53.426;10.300;2022-10-16T08:07:53;101298.00;;;15.88;86.13
63111;BME280;49201;53.426;10.300;2022-10-16T08:10:20;101304.91;;;16.01;85.96
63111;BME280;49201;53.426;10.300;2022-10-16T08:12:46;101305.78;;;15.95;85.54
63111;BME280;49201;53.426;10.300;2022-10-16T08:15:12;101308.41;;;16.07;84.88
63111;BME280;49201;53.426;10.300;2022-10-16T08:17:37;101303.13;;;15.83;85.83
63111;BME280;49201;53.426;10.300;2022-10-16T08:20:03;101316.78;;;15.66;86.31
63111;BME280;49201;53.426;10.300;2022-10-16T08:22:29;101321.84;;;15.49;86.50
63111;BME280;49201;53.426;10.300;2022-10-16T08:24:54;101325.25;;;15.48;87.29
63111;BME280;49201;53.426;10.300;2022-10-16T08:27:20;101325.34;;;15.59;86.99
63111;BME280;49201;53.426;10.300;2022-10-16T08:29:45;101334.13;;;15.89;85.46
63111;BME280;49201;53.426;10.300;2022-10-16T08:32:11;101333.25;;;15.86;85.51
63111;BME280;49201;53.426;10.300;2022-10-16T08:34:37;101332.53;;;16.14;84.81
63111;BME280;49201;53.426;10.300;2022-10-16T08:37:02;101333.41;;;16.13;84.25
63111;BME280;49201;53.426;10.300;2022-10-16T08:39:28;101334.34;;;16.31;83.75
63111;BME280;49201;53.426;10.300;2022-10-16T08:42:04;101328.44;;;16.55;82.90
63111;BME280;49201;53.426;10.300;2022-10-16T08:47:17;101327.63;;;17.85;77.78
63111;BME280;49201;53.426;10.300;2022-10-16T08:49:57;101326.81;;;17.65;78.43
63111;BME280;49201;53.426;10.300;2022-10-16T08:52:29;101321.88;;;19.09;72.12
63111;BME280;49201;53.426;10.300;2022-10-16T08:54:56;101322.78;;;19.97;68.46
63111;BME280;49201;53.426;10.300;2022-10-16T08:57:22;101325.41;;;19.96;66.04
63111;BME280;49201;53.426;10.300;2022-10-16T08:59:50;101349.94;;;18.40;72.58
63111;BME280;49201;53.426;10.300;2022-10-16T09:04:54;101328.56;;;20.23;66.84
63111;BME280;49201;53.426;10.300;2022-10-16T09:07:48;101322.63;;;21.85;59.72
63111;BME280;49201;53.426;10.300;2022-10-16T09:16:28;101314.47;;;24.18;52.53
63111;BME280;49201;53.426;10.300;2022-10-16T09:19:15;101328.53;;;22.77;54.56
63111;BME280;49201;53.426;10.300;2022-10-16T09:21:45;101328.78;;;23.03;54.08
63111;BME280;49201;53.426;10.300;2022-10-16T09:24:17;101313.97;;;23.72;52.02
63111;BME280;49201;53.426;10.300;2022-10-16T09:26:44;101320.88;;;23.74;51.21
63111;BME280;49201;53.426;10.300;2022-10-16T09:29:14;101326.38;;;23.65;52.19
63111;BME280;49201;53.426;10.300;2022-10-16T09:31:42;101322.00;;;24.57;50.54
63111;BME280;49201;53.426;10.300;2022-10-16T09:34:21;101323.16;;;24.49;48.78
63111;BME280;49201;53.426;10.300;2022-10-16T09:36:51;101329.28;;;25.56;46.89
63111;BME280;49201;53.426;10.300;2022-10-16T09:39:16;101326.03;;;24.96;47.57
63111;BME280;49201;53.426;10.300;2022-10-16T09:41:44;101335.22;;;25.37;46.81
63111;BME280;49201;53.426;10.300;2022-10-16T09:44:28;101336.19;;;25.34;45.77
63111;BME280;49201;53.426;10.300;2022-10-16T09:47:06;101337.41;;;26.24;45.55
63111;BME280;49201;53.426;10.300;2022-10-16T09:49:37;101347.47;;;25.62;45.51
63111;BME280;49201;53.426;10.300;2022-10-16T09:52:12;101346.03;;;24.99;46.41
63111;BME280;49201;53.426;10.300;2022-10-16T09:54:49;101349.78;;;25.45;45.06
63111;BME280;49201;53.426;10.300;2022-10-16T09:57:14;101351.56;;;26.43;42.87
63111;BME280;49201;53.426;10.300;2022-10-16T09:59:54;101357.69;;;25.70;43.47
63111;BME280;49201;53.426;10.300;2022-10-16T10:02:29;101344.50;;;26.43;42.68
63111;BME280;49201;53.426;10.300;2022-10-16T10:04:55;101348.38;;;25.86;43.29
63111;BME280;49201;53.426;10.300;2022-10-16T10:07:25;101340.75;;;27.38;41.11
63111;BME280;49201;53.426;10.300;2022-10-16T10:09:52;101335.50;;;28.36;39.13
63111;BME280;49201;53.426;10.300;2022-10-16T10:12:28;101337.97;;;28.02;38.81
63111;BME280;49201;53.426;10.300;2022-10-16T10:14:58;101355.09;;;28.31;38.86
63111;BME280;49201;53.426;10.300;2022-10-16T10:17:29;101350.94;;;28.82;37.39
63111;BME280;49201;53.426;10.300;2022-10-16T10:20:00;101363.72;;;27.34;39.86
63111;BME280;49201;53.426;10.300;2022-10-16T10:22:44;101346.81;;;30.32;35.70
63111;BME280;49201;53.426;10.300;2022-10-16T10:36:33;101370.75;;;28.72;36.52
63111;BME280;49201;53.426;10.300;2022-10-16T10:39:03;101356.50;;;30.64;33.64
63111;BME280;49201;53.426;10.300;2022-10-16T10:41:35;101376.69;;;29.31;33.99
63111;BME280;49201;53.426;10.300;2022-10-16T10:44:49;101372.72;;;28.10;36.17
63111;BME280;49201;53.426;10.300;2022-10-16T10:47:43;101370.03;;;31.51;31.46
63111;BME280;49201;53.426;10.300;2022-10-16T10:51:22;101370.06;;;31.35;31.39
63111;BME280;49201;53.426;10.300;2022-10-16T10:53:47;101373.31;;;29.80;33.16
63111;BME280;49201;53.426;10.300;2022-10-16T10:56:19;101401.19;;;25.23;40.25
63111;BME280;49201;53.426;10.300;2022-10-16T10:59:03;101397.72;;;29.85;33.80
63111;BME280;49201;53.426;10.300;2022-10-16T11:02:38;101401.41;;;27.76;36.59
63111;BME280;49201;53.426;10.300;2022-10-16T11:07:25;101403.56;;;26.81;38.25
63111;BME280;49201;53.426;10.300;2022-10-16T11:09:57;101412.75;;;24.29;43.50
63111;BME280;49201;53.426;10.300;2022-10-16T11:12:28;101415.47;;;23.23;44.84
63111;BME280;49201;53.426;10.300;2022-10-16T11:17:28;101396.50;;;30.90;31.54
63111;BME280;49201;53.426;10.300;2022-10-16T11:20:04;101401.09;;;29.53;34.13
63111;BME280;49201;53.426;10.300;2022-10-16T11:22:42;101397.56;;;29.88;32.65
63111;BME280;49201;53.426;10.300;2022-10-16T11:25:21;101393.41;;;31.29;31.26
63111;BME280;49201;53.426;10.300;2022-10-16T11:27:54;101383.41;;;32.36;30.48
63111;BME280;49201;53.426;10.300;2022-10-16T11:30:27;101385.94;;;32.80;28.57
63111;BME280;49201;53.426;10.300;2022-10-16T11:36:02;101395.16;;;33.41;28.52
63111;BME280;49201;53.426;10.300;2022-10-16T11:38:51;101381.59;;;32.65;28.67
63111;BME280;49201;53.426;10.300;2022-10-16T11:50:20;101406.75;;;29.81;33.09
63111;BME280;49201;53.426;10.300;2022-10-16T11:55:43;101427.59;;;28.01;35.55
63111;BME280;49201;53.426;10.300;2022-10-16T12:09:01;101452.97;;;25.17;40.05
63111;BME280;49201;53.426;10.300;2022-10-16T12:11:38;101454.91;;;27.35;35.30
63111;BME280;49201;53.426;10.300;2022-10-16T12:19:20;101451.16;;;28.82;35.02
63111;BME280;49201;53.426;10.300;2022-10-16T12:21:46;101472.53;;;24.14;43.46
63111;BME280;49201;53.426;10.300;2022-10-16T12:24:21;101455.38;;;28.86;34.75
63111;BME280;49201;53.426;10.300;2022-10-16T12:26:52;101456.53;;;29.18;33.53
63111;BME280;49201;53.426;10.300;2022-10-16T12:29:41;101471.03;;;26.33;38.90
63111;BME280;49201;53.426;10.300;2022-10-16T12:34:48;101463.41;;;30.77;31.31
63111;BME280;49201;53.426;10.300;2022-10-16T12:37:35;101463.00;;;31.00;31.24
63111;BME280;49201;53.426;10.300;2022-10-16T12:40:32;101471.41;;;28.63;34.96
63111;BME280;49201;53.426;10.300;2022-10-16T12:42:58;101482.84;;;26.44;39.26
63111;BME280;49201;53.426;10.300;2022-10-16T12:45:28;101473.25;;;29.89;33.58
63111;BME280;49201;53.426;10.300;2022-10-16T12:47:55;101472.03;;;30.13;33.34
63111;BME280;49201;53.426;10.300;2022-10-16T12:52:56;101511.53;;;23.53;44.86
63111;BME280;49201;53.426;10.300;2022-10-16T12:55:22;101478.25;;;28.67;33.77
63111;BME280;49201;53.426;10.300;2022-10-16T13:03:39;101480.34;;;30.40;30.13
63111;BME280;49201;53.426;10.300;2022-10-16T13:09:34;101494.34;;;28.01;34.00
63111;BME280;49201;53.426;10.300;2022-10-16T13:12:23;101505.44;;;26.99;35.32
63111;BME280;49201;53.426;10.300;2022-10-16T13:26:25;101552.88;;;21.93;46.45
63111;BME280;49201;53.426;10.300;2022-10-16T13:28:46;101565.22;;;22.35;45.36
63111;BME280;49201;53.426;10.300;2022-10-16T13:31:19;101567.13;;;21.68;48.00
63111;BME280;49201;53.426;10.300;2022-10-16T13:33:49;101566.16;;;22.81;46.13
63111;BME280;49201;53.426;10.300;2022-10-16T13:36:34;101564.75;;;23.08;45.49
63111;BME280;49201;53.426;10.300;2022-10-16T13:39:15;101569.34;;;21.98;47.71
63111;BME280;49201;53.426;10.300;2022-10-16T13:41:43;101566.34;;;22.71;46.51
63111;BME280;49201;53.426;10.300;2022-10-16T13:44:15;101582.78;;;21.71;48.81
63111;BME280;49201;53.426;10.300;2022-10-16T13:46:43;101583.22;;;21.35;50.48
63111;BME280;49201;53.426;10.300;2022-10-16T13:49:15;101594.16;;;20.93;51.99
63111;BME280;49201;53.426;10.300;2022-10-16T13:51:40;101595.38;;;21.37;51.47
63111;BME280;49201;53.426;10.300;2022-10-16T13:54:09;101585.03;;;22.97;47.68
63111;BME280;49201;53.426;10.300;2022-10-16T13:56:38;101583.50;;;22.35;48.74
63111;BME280;49201;53.426;10.300;2022-10-16T13:59:25;101594.75;;;22.38;49.05
63111;BME280;49201;53.426;10.300;2022-10-16T14:01:55;101599.75;;;21.99;49.61
63111;BME280;49201;53.426;10.300;2022-10-16T14:04:23;101598.66;;;21.50;49.90
63111;BME280;49201;53.426;10.300;2022-10-16T14:06:50;101602.75;;;22.29;47.92
63111;BME280;49201;53.426;10.300;2022-10-16T14:09:26;101606.00;;;22.42;48.55
63111;BME280;49201;53.426;10.300;2022-10-16T14:11:56;101607.03;;;23.29;46.58
63111;BME280;49201;53.426;10.300;2022-10-16T14:14:23;101604.41;;;23.70;45.23
63111;BME280;49201;53.426;10.300;2022-10-16T14:16:50;101607.50;;;23.89;44.63
63111;BME280;49201;53.426;10.300;2022-10-16T14:19:22;101613.19;;;23.27;45.28
63111;BME280;49201;53.426;10.300;2022-10-16T14:21:50;101608.53;;;24.18;44.12
63111;BME280;49201;53.426;10.300;2022-10-16T14:24:31;101622.78;;;24.42;43.22
63111;BME280;49201;53.426;10.300;2022-10-16T14:26:58;101616.47;;;24.50;43.22
63111;BME280;49201;53.426;10.300;2022-10-16T14:29:25;101615.69;;;24.47;42.62
63111;BME280;49201;53.426;10.300;2022-10-16T14:32:02;101619.38;;;24.73;42.86
63111;BME280;49201;53.426;10.300;2022-10-16T14:34:38;101624.66;;;24.37;44.00